Time;durP1;ratioP1;P1;durP2;ratioP2;P2;SDS_P1;SDS_P2;PMS_P1;PMS_P2;Temp;Humidity;BMP_temperature;BMP_pressure;BME280_temperature;BME280_humidity;BME280_pressure;Samples;Min_cycle;Max_cycle;Signal;HPM_P1;HPM_P2
2022/12/13 00:01:12;;;;;;;14.10;8.77;;;5.90;92.70;;;;;;5113330;28;20032;-50
2022/12/13 00:03:37;;;;;;;13.40;8.27;;;5.90;92.80;;;;;;5113631;28;20024;-50
2022/12/13 00:06:09;;;;;;;14.50;8.57;;;5.90;92.80;;;;;;5111913;28;20496;-50
2022/12/13 00:08:35;;;;;;;13.63;8.85;;;6.00;92.70;;;;;;5112503;28;20534;-55
2022/12/13 00:11:02;;;;;;;13.98;8.95;;;6.00;92.70;;;;;;5113041;28;20036;-54
2022/12/13 00:13:28;;;;;;;14.02;8.43;;;6.10;92.50;;;;;;5113092;28;20055;-50
2022/12/13 00:15:58;;;;;;;14.70;8.45;;;6.20;92.40;;;;;;5112991;28;20047;-50
2022/12/13 00:18:25;;;;;;;12.75;8.23;;;6.20;92.30;;;;;;5112411;28;20497;-50
2022/12/13 00:20:51;;;;;;;15.48;8.10;;;6.20;92.40;;;;;;5112915;28;20493;-51
2022/12/13 00:23:16;;;;;;;13.48;8.32;;;6.20;92.30;;;;;;5112039;28;20315;-56
2022/12/13 00:25:42;;;;;;;13.63;8.68;;;6.20;92.70;;;;;;5113063;28;20098;-52
2022/12/13 00:28:07;;;;;;;14.73;8.18;;;6.30;92.30;;;;;;5112089;28;20031;-54
2022/12/13 00:30:34;;;;;;;14.82;8.43;;;6.30;92.30;;;;;;5112629;28;20036;-54
2022/12/13 00:32:59;;;;;;;13.75;8.63;;;6.20;92.30;;;;;;5112873;28;20032;-53
2022/12/13 00:35:25;;;;;;;13.25;7.97;;;6.20;92.30;;;;;;5112722;28;20031;-50
2022/12/13 00:37:51;;;;;;;12.07;7.85;;;6.20;92.30;;;;;;5112275;28;20072;-50
2022/12/13 00:40:16;;;;;;;13.10;7.93;;;6.10;92.20;;;;;;5112155;28;20568;-50
2022/12/13 00:42:42;;;;;;;12.65;7.80;;;6.10;92.30;;;;;;5112499;28;20023;-52
2022/12/13 00:45:08;;;;;;;13.93;8.23;;;6.10;92.40;;;;;;5112273;28;20027;-54
2022/12/13 00:47:35;;;;;;;14.27;8.25;;;6.00;92.40;;;;;;5112288;28;20113;-57
2022/12/13 00:50:02;;;;;;;14.50;7.97;;;6.00;92.30;;;;;;5111855;27;20098;-51
2022/12/13 00:52:27;;;;;;;14.38;8.27;;;6.00;92.40;;;;;;5112261;28;20569;-55
2022/12/13 00:54:53;;;;;;;13.52;8.55;;;5.90;92.40;;;;;;5112285;28;20063;-56
2022/12/13 00:57:20;;;;;;;15.07;7.55;;;5.90;92.40;;;;;;5111929;28;20098;-54
2022/12/13 00:59:45;;;;;;;12.85;7.50;;;5.90;92.50;;;;;;5111130;28;20028;-50
2022/12/13 01:02:11;;;;;;;14.18;8.18;;;5.90;92.50;;;;;;5111846;28;20065;-50
2022/12/13 01:04:37;;;;;;;13.02;7.97;;;5.90;92.50;;;;;;5112183;28;20019;-53
2022/12/13 01:07:02;;;;;;;13.80;6.65;;;5.90;92.50;;;;;;5111942;28;20039;-50
2022/12/13 01:09:29;;;;;;;13.30;7.85;;;5.90;92.40;;;;;;5111404;28;20032;-50
2022/12/13 01:11:57;;;;;;;13.15;8.30;;;6.00;92.30;;;;;;5111939;28;20027;-52
2022/12/13 01:14:23;;;;;;;13.52;7.50;;;6.10;92.20;;;;;;5111843;28;20031;-50
2022/12/13 01:16:49;;;;;;;14.60;7.72;;;6.10;92.10;;;;;;5111624;28;20023;-50
2022/12/13 01:19:14;;;;;;;14.27;8.20;;;6.10;92.10;;;;;;5111328;28;20537;-53
2022/12/13 01:21:40;;;;;;;13.48;7.85;;;6.10;92.00;;;;;;5111859;28;20024;-54
2022/12/13 01:24:06;;;;;;;11.80;7.75;;;6.20;92.10;;;;;;5110889;28;20015;-54
2022/12/13 01:26:32;;;;;;;11.70;7.40;;;6.10;92.00;;;;;;5111629;28;20024;-55
2022/12/13 01:28:58;;;;;;;14.05;7.72;;;6.20;92.00;;;;;;5111151;28;20553;-50
2022/12/13 01:31:24;;;;;;;13.52;7.90;;;6.20;92.00;;;;;;5111733;28;20107;-53
2022/12/13 01:33:50;;;;;;;14.13;8.40;;;6.10;91.90;;;;;;5111615;28;20393;-51
2022/12/13 01:36:18;;;;;;;12.38;7.60;;;6.10;91.90;;;;;;5111562;28;20507;-50
2022/12/13 01:38:44;;;;;;;13.10;7.57;;;6.00;92.00;;;;;;5110883;28;20019;-51
2022/12/13 01:41:14;;;;;;;13.90;7.65;;;6.00;92.00;;;;;;5111375;28;20040;-52
2022/12/13 01:43:40;;;;;;;15.18;7.32;;;6.00;92.00;;;;;;5111499;28;20019;-50
2022/12/13 01:46:05;;;;;;;12.57;7.65;;;5.90;92.00;;;;;;5111455;28;20020;-50
2022/12/13 01:48:40;;;;;;;14.23;7.32;;;5.90;92.00;;;;;;5110907;28;20028;-54
2022/12/13 01:51:09;;;;;;;12.75;7.50;;;5.90;92.10;;;;;;5111433;28;20115;-56
2022/12/13 01:53:38;;;;;;;12.82;7.15;;;5.80;92.00;;;;;;5111267;28;20094;-53
2022/12/13 01:56:13;;;;;;;12.98;8.02;;;5.80;92.10;;;;;;5111282;28;20024;-55
2022/12/13 01:58:39;;;;;;;13.25;7.40;;;5.80;92.10;;;;;;5110771;28;20022;-56
2022/12/13 02:01:05;;;;;;;12.75;7.55;;;5.80;92.20;;;;;;5111300;28;20410;-50
2022/12/13 02:03:32;;;;;;;14.88;8.00;;;5.70;92.10;;;;;;5111294;28;20024;-50
2022/12/13 02:06:13;;;;;;;12.43;7.32;;;5.80;92.20;;;;;;5111134;28;20016;-52
2022/12/13 02:08:40;;;;;;;15.20;7.75;;;5.80;92.40;;;;;;5110710;28;20549;-50
2022/12/13 02:11:06;;;;;;;11.70;7.25;;;5.90;92.20;;;;;;5111369;28;20031;-50
2022/12/13 02:13:32;;;;;;;12.63;7.43;;;6.00;91.90;;;;;;5115274;28;20485;-50
2022/12/13 02:16:13;;;;;;;12.43;7.75;;;6.10;91.80;;;;;;5115268;28;20028;-51
2022/12/13 02:18:52;;;;;;;13.48;7.72;;;6.00;91.70;;;;;;5114656;27;20102;-53
2022/12/13 02:21:33;;;;;;;13.43;7.80;;;6.00;91.70;;;;;;5115239;28;20099;-54
2022/12/13 02:24:40;;;;;;;11.15;7.07;;;6.10;91.70;;;;;;5114288;28;20544;-51
2022/12/13 02:27:50;;;;;;;13.25;7.55;;;6.10;91.70;;;;;;5115041;28;20108;-50
2022/12/13 02:30:23;;;;;;;10.73;7.10;;;6.10;91.70;;;;;;5081453;28;20040;-50
2022/12/13 02:33:08;;;;;;;13.63;7.87;;;6.10;91.60;;;;;;5115007;28;20077;-50
2022/12/13 02:36:02;;;;;;;11.32;6.95;;;6.00;91.60;;;;;;5114950;28;20031;-52
2022/12/13 02:38:27;;;;;;;11.35;6.85;;;5.90;91.60;;;;;;5098684;28;20040;-51
2022/12/13 02:41:03;;;;;;;13.48;7.18;;;5.90;91.70;;;;;;5114550;28;20043;-50
2022/12/13 02:43:39;;;;;;;15.23;7.63;;;5.90;91.70;;;;;;5113517;28;20423;-52
2022/12/13 02:46:07;;;;;;;14.73;7.40;;;5.80;91.70;;;;;;5114801;28;20106;-51
2022/12/13 02:48:37;;;;;;;17.67;7.30;;;5.80;91.80;;;;;;5114119;28;20069;-50
2022/12/13 02:51:05;;;;;;;12.70;7.28;;;5.80;92.10;;;;;;5114681;27;20071;-52
2022/12/13 02:53:33;;;;;;;12.43;7.40;;;5.70;91.80;;;;;;5114546;28;20102;-53
2022/12/13 02:55:58;;;;;;;12.85;6.70;;;5.70;91.80;;;;;;5114508;28;20048;-50
2022/12/13 02:58:31;;;;;;;11.73;7.10;;;5.70;91.80;;;;;;5113813;28;20121;-50
2022/12/13 03:01:26;;;;;;;11.55;6.97;;;5.70;91.80;;;;;;5114553;28;20110;-50
2022/12/13 03:04:27;;;;;;;13.45;7.65;;;5.60;92.20;;;;;;5114326;28;20111;-53
2022/12/13 03:06:56;;;;;;;12.75;7.90;;;5.60;91.80;;;;;;5114281;28;20028;-50
2022/12/13 03:09:57;;;;;;;12.50;7.32;;;5.70;91.70;;;;;;5113815;28;20023;-54
2022/12/13 03:15:25;;;;;;;13.35;7.60;;;5.90;91.50;;;;;;5114265;28;20038;-52
2022/12/13 03:18:14;;;;;;;13.50;7.55;;;5.90;91.50;;;;;;5113840;27;20032;-51
2022/12/13 03:20:51;;;;;;;12.30;7.03;;;5.90;91.40;;;;;;5113990;28;20020;-50
2022/12/13 03:23:18;;;;;;;14.43;7.65;;;5.90;91.40;;;;;;5112465;28;20059;-51
2022/12/13 03:25:47;;;;;;;12.27;7.10;;;5.90;91.40;;;;;;5112716;28;20019;-50
2022/12/13 03:28:12;;;;;;;11.30;7.28;;;5.90;91.30;;;;;;5112055;28;20107;-50
2022/12/13 03:30:38;;;;;;;10.90;6.85;;;5.90;91.30;;;;;;5113791;28;20024;-50
2022/12/13 03:33:04;;;;;;;12.82;7.05;;;6.00;91.30;;;;;;5113872;28;20031;-51
2022/12/13 03:35:30;;;;;;;11.73;7.60;;;5.90;91.30;;;;;;5113777;28;20039;-50
2022/12/13 03:37:56;;;;;;;12.38;7.35;;;5.90;91.20;;;;;;5111954;28;20028;-51
2022/12/13 03:40:22;;;;;;;10.52;6.97;;;5.80;91.30;;;;;;5113585;28;20523;-55
2022/12/13 03:42:48;;;;;;;11.23;6.78;;;5.80;91.40;;;;;;5113651;27;20027;-52
2022/12/13 03:45:13;;;;;;;12.23;7.43;;;5.70;91.40;;;;;;5113644;28;20028;-54
2022/12/13 03:47:39;;;;;;;10.68;7.30;;;5.70;91.40;;;;;;5113542;28;20030;-55
2022/12/13 03:50:05;;;;;;;11.90;7.30;;;5.70;91.50;;;;;;5113228;28;20039;-51
2022/12/13 03:52:31;;;;;;;12.35;7.38;;;5.60;91.50;;;;;;5113624;28;20039;-50
2022/12/13 03:54:56;;;;;;;11.20;6.85;;;5.60;91.50;;;;;;5112193;28;20389;-50
2022/12/13 03:57:22;;;;;;;11.07;7.15;;;5.60;91.50;;;;;;5113232;28;20038;-53
2022/12/13 03:59:48;;;;;;;13.85;7.22;;;5.60;91.50;;;;;;5112923;28;20049;-52
2022/12/13 04:02:13;;;;;;;13.45;8.00;;;5.50;91.50;;;;;;5113433;28;20035;-50
2022/12/13 04:04:39;;;;;;;11.25;7.28;;;5.50;91.60;;;;;;5113292;28;20026;-50
2022/12/13 04:07:04;;;;;;;13.48;7.60;;;5.60;91.60;;;;;;5113163;28;20115;-50
2022/12/13 04:09:30;;;;;;;11.45;7.57;;;5.60;91.80;;;;;;5112628;28;20016;-55
2022/12/13 04:14:40;;;;;;;11.38;7.32;;;5.80;91.20;;;;;;5113105;28;20076;-50
2022/12/13 04:17:05;;;;;;;11.90;7.20;;;5.80;91.20;;;;;;5112888;28;20040;-50
2022/12/13 04:19:31;;;;;;;12.18;7.68;;;5.90;91.20;;;;;;5112328;28;20481;-51
2022/12/13 04:21:56;;;;;;;11.80;6.78;;;5.90;91.10;;;;;;5112628;28;20058;-57
2022/12/13 04:24:24;;;;;;;12.70;7.82;;;5.90;91.10;;;;;;5112324;28;20026;-50
2022/12/13 04:26:49;;;;;;;12.02;7.70;;;5.80;91.00;;;;;;5112778;28;20112;-52
2022/12/13 04:29:15;;;;;;;12.18;7.68;;;5.90;91.00;;;;;;5112268;28;20472;-53
2022/12/13 04:31:41;;;;;;;13.95;7.88;;;5.80;91.00;;;;;;5112760;28;20037;-49
2022/12/13 04:34:07;;;;;;;12.05;7.95;;;5.80;91.00;;;;;;5111359;28;20081;-50
2022/12/13 04:36:32;;;;;;;11.70;7.68;;;5.80;90.90;;;;;;5111561;28;20469;-50
2022/12/13 04:39:00;;;;;;;11.73;7.38;;;5.80;91.00;;;;;;5112052;28;20035;-52
2022/12/13 04:41:25;;;;;;;10.70;7.47;;;5.70;91.00;;;;;;5112441;28;20047;-55
2022/12/13 04:43:53;;;;;;;12.45;7.90;;;5.70;91.10;;;;;;5112524;28;20024;-53
2022/12/13 04:46:19;;;;;;;12.15;7.65;;;5.60;91.10;;;;;;5112586;28;20426;-52
2022/12/13 04:48:45;;;;;;;13.10;7.82;;;5.70;91.10;;;;;;5111762;28;20492;-50
2022/12/13 04:51:11;;;;;;;12.25;7.13;;;5.70;91.00;;;;;;5112311;28;20027;-52
2022/12/13 04:53:37;;;;;;;11.45;7.63;;;5.80;91.00;;;;;;5112350;28;20446;-50
2022/12/13 04:56:04;;;;;;;13.07;7.88;;;5.80;90.80;;;;;;5112284;28;20513;-50
2022/12/13 04:58:30;;;;;;;14.52;7.88;;;5.90;90.80;;;;;;5111814;28;20019;-53
2022/12/13 05:00:56;;;;;;;11.02;7.55;;;5.90;90.80;;;;;;5112236;28;20114;-50
2022/12/13 05:03:22;;;;;;;14.13;7.80;;;5.90;90.80;;;;;;5112533;28;20473;-50
2022/12/13 05:05:48;;;;;;;11.60;7.50;;;5.90;90.80;;;;;;5111928;28;20027;-50
2022/12/13 05:08:14;;;;;;;12.93;8.00;;;5.90;90.80;;;;;;5111496;28;20050;-54
2022/12/13 05:10:39;;;;;;;12.07;7.80;;;5.90;90.80;;;;;;5112015;28;20024;-55
2022/12/13 05:13:05;;;;;;;12.10;7.45;;;5.80;90.70;;;;;;5110622;28;20435;-53
2022/12/13 05:15:31;;;;;;;13.07;7.75;;;5.80;90.70;;;;;;5111906;28;20034;-53
2022/12/13 05:18:04;;;;;;;11.80;7.80;;;5.90;90.70;;;;;;5111341;28;20044;-55
2022/12/13 05:20:30;;;;;;;13.55;7.78;;;5.90;90.60;;;;;;5111656;28;20488;-53
2022/12/13 05:22:56;;;;;;;12.65;8.02;;;5.90;90.70;;;;;;5111794;28;20122;-50
2022/12/13 05:25:25;;;;;;;14.90;8.45;;;5.90;90.60;;;;;;5111777;28;20028;-50
2022/12/13 05:27:51;;;;;;;12.02;8.45;;;5.80;90.60;;;;;;5111417;28;20024;-50
2022/12/13 05:30:18;;;;;;;12.00;7.93;;;5.80;90.60;;;;;;5111443;28;20389;-50
2022/12/13 05:32:44;;;;;;;13.45;7.88;;;5.80;90.60;;;;;;5111622;28;20092;-50
2022/12/13 05:35:10;;;;;;;14.07;9.07;;;5.80;90.60;;;;;;5111484;28;20389;-50
2022/12/13 05:37:35;;;;;;;14.25;9.20;;;5.80;90.60;;;;;;5111370;28;20065;-49
2022/12/13 05:40:01;;;;;;;14.82;8.65;;;5.80;90.60;;;;;;5111041;28;20059;-51
2022/12/13 05:42:27;;;;;;;13.80;8.30;;;5.70;90.60;;;;;;5111540;28;20046;-50
2022/12/13 05:44:52;;;;;;;14.88;9.15;;;5.70;90.70;;;;;;5111863;28;20059;-51
2022/12/13 05:47:18;;;;;;;15.43;8.60;;;5.60;90.60;;;;;;5110916;28;20020;-51
2022/12/13 05:49:44;;;;;;;17.63;9.55;;;5.60;90.70;;;;;;5110956;28;20485;-51
2022/12/13 05:52:18;;;;;;;15.30;8.75;;;5.60;90.80;;;;;;5111404;28;20023;-51
2022/12/13 05:54:43;;;;;;;14.10;8.73;;;5.50;90.70;;;;;;5111569;28;20035;-50
2022/12/13 05:57:09;;;;;;;13.93;8.55;;;5.50;90.80;;;;;;5111241;28;20096;-50
2022/12/13 05:59:34;;;;;;;16.65;9.10;;;5.40;90.80;;;;;;5110829;28;20123;-55
2022/12/13 06:02:00;;;;;;;13.35;8.90;;;5.40;91.20;;;;;;5111277;28;20019;-51
2022/12/13 06:04:26;;;;;;;14.20;8.90;;;5.40;90.90;;;;;;5111296;28;20023;-50
2022/12/13 06:06:51;;;;;;;14.80;8.85;;;5.40;90.90;;;;;;5111253;28;20118;-50
2022/12/13 06:09:18;;;;;;;16.63;9.68;;;5.50;90.80;;;;;;5110827;28;20051;-52
2022/12/13 06:11:44;;;;;;;16.65;9.32;;;5.60;90.80;;;;;;5111312;28;20034;-50
2022/12/13 06:14:10;;;;;;;14.95;9.50;;;5.70;90.70;;;;;;5111224;28;20024;-50
2022/12/13 06:16:35;;;;;;;15.07;9.48;;;5.70;90.50;;;;;;5110962;28;20032;-54
2022/12/13 06:19:01;;;;;;;15.98;9.55;;;5.80;90.50;;;;;;5109290;28;20107;-50
2022/12/13 06:21:27;;;;;;;16.38;9.50;;;5.80;90.40;;;;;;5111187;28;20024;-50
2022/12/13 06:23:53;;;;;;;15.82;9.65;;;5.80;90.70;;;;;;5111098;28;20028;-50
2022/12/13 06:26:19;;;;;;;13.85;8.68;;;5.70;90.40;;;;;;5111097;28;20503;-51
2022/12/13 06:28:44;;;;;;;13.80;9.32;;;5.80;90.40;;;;;;5110501;28;20095;-50
2022/12/13 06:31:10;;;;;;;14.68;8.88;;;5.70;90.30;;;;;;5110968;28;20027;-53
2022/12/13 06:33:37;;;;;;;13.93;8.43;;;5.70;90.30;;;;;;5110923;28;20024;-50
2022/12/13 06:36:04;;;;;;;14.50;9.30;;;5.70;90.30;;;;;;5111021;28;20020;-50
2022/12/13 06:38:30;;;;;;;16.02;9.65;;;5.60;90.30;;;;;;5110216;28;20031;-50
2022/12/13 06:41:08;;;;;;;17.80;9.70;;;5.60;90.40;;;;;;5110895;28;20058;-50
2022/12/13 06:43:33;;;;;;;17.45;9.73;;;5.60;90.40;;;;;;5111007;28;20020;-50
2022/12/13 06:46:01;;;;;;;15.82;9.20;;;5.50;90.70;;;;;;5110764;28;20093;-50
2022/12/13 06:48:26;;;;;;;16.73;9.88;;;5.50;90.40;;;;;;5110298;28;20032;-50
2022/12/13 06:50:52;;;;;;;13.52;8.52;;;5.40;90.40;;;;;;5110891;28;20470;-50
2022/12/13 06:53:17;;;;;;;19.05;9.90;;;5.40;90.50;;;;;;5110838;28;20481;-53
2022/12/13 06:55:43;;;;;;;16.83;9.98;;;5.40;90.60;;;;;;5110829;28;20030;-51
2022/12/13 06:58:09;;;;;;;15.45;9.68;;;5.30;90.60;;;;;;5110315;28;20035;-50
2022/12/13 07:00:34;;;;;;;15.40;9.75;;;5.30;90.60;;;;;;5114352;28;20020;-50
2022/12/13 07:03:00;;;;;;;16.17;9.65;;;5.30;90.60;;;;;;5114489;28;20027;-51
2022/12/13 07:05:26;;;;;;;16.25;9.85;;;5.30;90.70;;;;;;5113143;28;20063;-50
2022/12/13 07:07:52;;;;;;;17.60;9.85;;;5.40;91.00;;;;;;5114013;28;20027;-53
2022/12/13 07:10:17;;;;;;;16.02;10.35;;;5.40;90.50;;;;;;5114202;27;20062;-49
2022/12/13 07:12:43;;;;;;;16.83;10.60;;;5.50;90.50;;;;;;5114403;28;20403;-50
2022/12/13 07:15:09;;;;;;;17.38;10.18;;;5.60;90.30;;;;;;5114145;28;20085;-50
2022/12/13 07:17:35;;;;;;;16.13;9.27;;;5.60;90.20;;;;;;5113975;28;20054;-51
2022/12/13 07:20:08;;;;;;;17.85;10.05;;;5.70;90.20;;;;;;5113753;28;20384;-51
2022/12/13 07:22:35;;;;;;;18.10;10.63;;;5.70;90.20;;;;;;5114186;28;20053;-54
2022/12/13 07:25:02;;;;;;;16.73;10.82;;;5.70;90.20;;;;;;5112879;28;20095;-50
2022/12/13 07:27:27;;;;;;;15.52;9.98;;;5.70;90.20;;;;;;5113885;28;20032;-50
2022/12/13 07:29:53;;;;;;;15.80;9.70;;;5.70;90.20;;;;;;5113855;28;20036;-50
2022/12/13 07:32:19;;;;;;;14.88;9.80;;;5.60;90.10;;;;;;5114018;28;20133;-50
2022/12/13 07:34:44;;;;;;;18.25;10.25;;;5.70;90.10;;;;;;5114322;28;20397;-50
2022/12/13 07:37:10;;;;;;;18.30;10.70;;;5.60;90.10;;;;;;5113796;28;20031;-51
2022/12/13 07:39:35;;;;;;;17.98;10.30;;;5.60;90.20;;;;;;5113184;28;20120;-50
2022/12/13 07:42:01;;;;;;;17.92;10.75;;;5.50;90.10;;;;;;5113703;28;20516;-52
2022/12/13 07:44:27;;;;;;;17.85;11.18;;;5.50;90.20;;;;;;5113534;28;20019;-50
2022/12/13 07:46:52;;;;;;;19.00;10.40;;;5.40;90.30;;;;;;5112224;28;20020;-50
2022/12/13 07:49:18;;;;;;;15.77;10.38;;;5.40;90.40;;;;;;5113093;28;20512;-51
2022/12/13 07:51:44;;;;;;;17.90;10.23;;;5.40;90.40;;;;;;5113776;27;20481;-51
2022/12/13 07:54:09;;;;;;;15.20;10.05;;;5.40;90.40;;;;;;5113528;27;20047;-52
2022/12/13 07:56:35;;;;;;;17.27;10.32;;;5.30;90.40;;;;;;5113183;28;20019;-50
2022/12/13 07:59:01;;;;;;;19.45;10.40;;;5.30;90.50;;;;;;5112832;28;20038;-49
2022/12/13 08:01:27;;;;;;;16.75;10.43;;;5.30;90.50;;;;;;5113548;28;20027;-50
2022/12/13 08:03:53;;;;;;;16.50;10.10;;;5.30;90.50;;;;;;5113586;28;20377;-49
2022/12/13 08:06:19;;;;;;;18.98;11.25;;;5.20;90.50;;;;;;5113301;28;20020;-49
2022/12/13 08:08:45;;;;;;;17.73;10.98;;;5.20;90.60;;;;;;5112614;28;20525;-50
2022/12/13 08:11:14;;;;;;;19.25;10.52;;;5.20;90.60;;;;;;5112813;28;20473;-50
2022/12/13 08:13:40;;;;;;;19.95;10.55;;;5.20;90.60;;;;;;5111773;28;20024;-52
2022/12/13 08:16:09;;;;;;;17.27;9.98;;;5.20;90.60;;;;;;5113042;28;20091;-53
2022/12/13 08:18:35;;;;;;;15.98;10.38;;;5.20;90.60;;;;;;5112334;28;20023;-55
2022/12/13 08:21:02;;;;;;;14.68;9.45;;;5.20;90.70;;;;;;5112977;28;20031;-52
2022/12/13 08:23:29;;;;;;;19.60;11.15;;;5.20;90.70;;;;;;5112918;28;20027;-53
2022/12/13 08:25:55;;;;;;;19.55;11.20;;;5.20;90.80;;;;;;5112797;28;20028;-50
2022/12/13 08:28:22;;;;;;;16.73;10.45;;;5.30;90.70;;;;;;5112182;28;20027;-53
2022/12/13 08:30:48;;;;;;;17.85;10.68;;;5.40;90.60;;;;;;5112798;28;20034;-49
2022/12/13 08:33:14;;;;;;;17.77;10.63;;;5.50;90.50;;;;;;5112683;28;20024;-50
2022/12/13 08:35:40;;;;;;;16.05;9.65;;;5.60;90.50;;;;;;5112706;28;20024;-50
2022/12/13 08:38:06;;;;;;;18.13;10.90;;;5.70;90.30;;;;;;5112426;28;20031;-57
2022/12/13 08:40:32;;;;;;;17.63;10.25;;;5.80;90.20;;;;;;5112423;28;20125;-52
2022/12/13 08:42:57;;;;;;;17.42;10.88;;;5.90;90.20;;;;;;5112576;28;20484;-54
2022/12/13 08:45:24;;;;;;;14.82;9.85;;;5.80;90.20;;;;;;5112608;28;20043;-50
2022/12/13 08:47:50;;;;;;;27.65;16.15;;;5.90;90.30;;;;;;5112052;28;20528;-42
2022/12/13 08:50:16;;;;;;;32.25;17.20;;;5.50;78.90;;;;;;5109924;28;20122;-44
2022/12/13 08:52:43;;;;;;;29.63;16.77;;;5.10;75.90;;;;;;5111748;28;20431;-41
2022/12/13 08:55:11;;;;;;;31.50;17.77;;;4.60;75.30;;;;;;5116984;28;20061;-42
2022/12/13 08:57:38;;;;;;;37.70;17.60;;;3.80;75.40;;;;;;5112035;28;20035;-40
2022/12/13 09:00:05;;;;;;;25.80;15.10;;;2.80;77.90;;;;;;5111727;28;20028;-40
2022/12/13 09:02:31;;;;;;;29.40;15.90;;;1.80;79.80;;;;;;5112116;28;20015;-40
2022/12/13 09:04:56;;;;;;;26.23;15.05;;;1.40;83.40;;;;;;5112096;28;20031;-41
2022/12/13 09:07:22;;;;;;;29.00;15.27;;;1.50;86.00;;;;;;5111911;28;20385;-40
2022/12/13 09:09:47;;;;;;;28.40;14.95;;;1.60;87.70;;;;;;5111470;28;20032;-40
2022/12/13 09:12:13;;;;;;;28.10;14.10;;;1.80;88.70;;;;;;5111963;28;20078;-40
2022/12/13 09:14:39;;;;;;;27.40;14.32;;;2.00;89.30;;;;;;5111945;28;20027;-41
2022/12/13 09:17:04;;;;;;;28.58;13.95;;;2.20;89.90;;;;;;5111801;28;20456;-40
2022/12/13 09:19:30;;;;;;;24.13;14.40;;;2.40;90.00;;;;;;5111358;28;20180;-42
2022/12/13 09:21:56;;;;;;;23.88;13.70;;;2.60;90.10;;;;;;5111096;28;20046;-41
2022/12/13 09:24:21;;;;;;;22.48;13.57;;;3.00;90.10;;;;;;5111739;28;20104;-41
2022/12/13 09:26:47;;;;;;;25.05;12.52;;;3.60;92.70;;;;;;5111698;28;20096;-42
2022/12/13 09:29:14;;;;;;;22.63;13.00;;;3.90;90.10;;;;;;5111169;28;20016;-40
2022/12/13 09:31:41;;;;;;;20.55;11.90;;;4.20;88.70;;;;;;5111722;28;20011;-40
2022/12/13 09:34:07;;;;;;;21.25;12.93;;;4.60;90.20;;;;;;5111657;28;20489;-40
2022/12/13 09:36:33;;;;;;;22.30;11.60;;;4.80;87.50;;;;;;5111443;28;20043;-40
2022/12/13 09:38:59;;;;;;;21.02;11.77;;;5.10;87.20;;;;;;5110899;28;20108;-41
2022/12/13 09:41:53;;;;;;;18.67;11.02;;;5.30;86.80;;;;;;5111446;28;20065;-40
2022/12/13 09:44:23;;;;;;;17.92;10.90;;;5.40;86.50;;;;;;5107336;28;20038;-40
2022/12/13 09:46:51;;;;;;;16.75;10.82;;;5.40;86.50;;;;;;5111463;28;20107;-41
2022/12/13 09:49:24;;;;;;;20.20;11.00;;;5.40;86.90;;;;;;5110872;28;20544;-40
2022/12/13 09:51:56;;;;;;;20.90;11.63;;;5.50;87.00;;;;;;5111534;28;20481;-40
2022/12/13 09:54:23;;;;;;;20.23;10.52;;;5.60;87.00;;;;;;5111506;28;20269;-40
2022/12/13 09:56:53;;;;;;;17.77;10.25;;;5.70;86.80;;;;;;5111264;28;20067;-41
2022/12/13 09:59:32;;;;;;;17.73;10.15;;;5.80;87.60;;;;;;5109480;28;20027;-40
2022/12/13 10:02:16;;;;;;;19.00;10.02;;;5.80;86.90;;;;;;5111401;28;20144;-40
2022/12/13 10:04:42;;;;;;;18.33;9.90;;;5.80;87.20;;;;;;5111350;28;20481;-40
2022/12/13 10:07:20;;;;;;;17.17;10.15;;;5.90;87.30;;;;;;5111278;28;20050;-41
2022/12/13 10:09:46;;;;;;;16.15;8.95;;;6.10;92.30;;;;;;5110964;28;20030;-40
2022/12/13 10:12:15;;;;;;;14.27;9.32;;;6.20;92.40;;;;;;5110979;28;20028;-41
2022/12/13 10:14:48;;;;;;;13.73;8.90;;;6.00;87.20;;;;;;5111344;28;20020;-40
2022/12/13 10:17:18;;;;;;;16.77;9.48;;;6.00;87.40;;;;;;5111065;28;20107;-42
2022/12/13 10:19:46;;;;;;;15.80;9.32;;;6.10;87.50;;;;;;5110726;28;20031;-42
2022/12/13 10:22:14;;;;;;;13.77;8.55;;;6.30;89.40;;;;;;5111165;28;20015;-42
2022/12/13 10:25:02;;;;;;;15.60;9.05;;;6.40;93.00;;;;;;5110971;28;20419;-42
2022/12/13 10:27:33;;;;;;;13.70;8.75;;;6.20;87.40;;;;;;5110959;28;20024;-41
2022/12/13 10:30:12;;;;;;;13.57;8.30;;;6.20;87.60;;;;;;5110797;28;20028;-41
2022/12/13 10:32:54;;;;;;;13.23;8.05;;;6.20;87.80;;;;;;5112140;28;20513;-42
2022/12/13 10:35:46;;;;;;;14.55;8.40;;;6.30;87.80;;;;;;5115049;28;20042;-42
2022/12/13 10:38:15;;;;;;;14.70;8.25;;;6.30;87.70;;;;;;5114183;28;20114;-43
2022/12/13 10:40:44;;;;;;;14.23;7.95;;;6.30;87.70;;;;;;5114802;28;20058;-44
2022/12/13 10:43:26;;;;;;;11.57;7.53;;;6.30;87.90;;;;;;5114928;28;20468;-44
2022/12/13 10:45:55;;;;;;;13.57;8.20;;;6.20;88.00;;;;;;5114876;28;20136;-42
2022/12/13 10:48:42;;;;;;;13.65;7.13;;;6.20;88.30;;;;;;5114242;28;20263;-42
2022/12/13 10:51:10;;;;;;;11.23;6.97;;;6.10;88.50;;;;;;5106999;28;20101;-42
2022/12/13 10:53:57;;;;;;;11.45;7.35;;;6.00;88.80;;;;;;5114629;28;20532;-42
2022/12/13 10:56:37;;;;;;;13.38;7.60;;;5.90;89.00;;;;;;5114580;27;20027;-42
2022/12/13 10:59:25;;;;;;;12.82;7.15;;;5.90;89.40;;;;;;5114198;28;20016;-42
2022/12/13 11:01:51;;;;;;;12.57;7.15;;;5.90;89.70;;;;;;5114630;28;20027;-42
2022/12/13 11:04:36;;;;;;;11.90;7.30;;;5.80;89.90;;;;;;5114439;28;20028;-42
2022/12/13 11:07:26;;;;;;;12.10;7.20;;;5.80;90.00;;;;;;5114286;28;20047;-42
2022/12/13 11:09:52;;;;;;;13.57;6.90;;;5.70;90.10;;;;;;5114025;27;20450;-42
2022/12/13 11:12:23;;;;;;;11.80;7.38;;;5.70;90.20;;;;;;5114311;28;20055;-41
2022/12/13 11:14:57;;;;;;;10.88;6.63;;;5.60;90.30;;;;;;5114343;28;20015;-43
2022/12/13 11:17:27;;;;;;;;;;;5.60;90.30;;;;;;5114551;28;20047;-42
2022/12/13 11:19:59;;;;;;;13.77;6.95;;;5.60;90.40;;;;;;5113789;28;19912;-43
2022/12/13 11:22:30;;;;;;;13.50;6.80;;;5.60;90.50;;;;;;5114042;28;20019;-41
2022/12/13 11:25:02;;;;;;;10.15;6.97;;;5.50;90.50;;;;;;5114020;28;20024;-42
2022/12/13 11:27:43;;;;;;;13.40;7.25;;;5.50;90.60;;;;;;5114161;28;20032;-42
2022/12/13 11:30:17;;;;;;;10.75;6.68;;;5.50;90.60;;;;;;5113672;28;20031;-42
2022/12/13 11:33:05;;;;;;;11.07;6.70;;;5.50;90.70;;;;;;5114101;28;20096;-45
2022/12/13 11:35:47;;;;;;;22.30;11.05;;;5.50;90.70;;;;;;5113763;28;20094;-43
2022/12/13 11:38:51;;;;;;;22.48;12.57;;;5.40;89.20;;;;;;5113274;28;20032;-45
2022/12/13 11:41:33;;;;;;;19.75;11.90;;;5.20;90.70;;;;;;5113677;27;20043;-47
2022/12/13 11:44:33;;;;;;;22.83;11.55;;;4.80;89.10;;;;;;5111803;28;20534;-45
2022/12/13 11:47:00;;;;;;;19.65;11.43;;;4.80;89.90;;;;;;5113621;28;20074;-46
2022/12/13 11:49:33;;;;;;;19.45;11.57;;;4.90;90.20;;;;;;5113052;28;20480;-43
2022/12/13 11:52:04;;;;;;;17.42;9.95;;;4.90;90.30;;;;;;5113559;28;20058;-45
2022/12/13 11:54:46;;;;;;;19.77;11.23;;;4.90;90.40;;;;;;5113634;28;20557;-45
2022/12/13 11:57:25;;;;;;;19.50;11.05;;;5.00;90.50;;;;;;5113550;28;20063;-46
2022/12/13 11:59:57;;;;;;;20.83;11.48;;;5.00;90.50;;;;;;5113069;28;20019;-45
2022/12/13 12:02:32;;;;;;;18.52;10.48;;;5.00;90.50;;;;;;5113886;28;20077;-45
2022/12/13 12:05:21;;;;;;;14.95;9.82;;;5.00;90.60;;;;;;5113429;28;20023;-44
2022/12/13 12:07:52;;;;;;;18.63;9.63;;;5.10;90.60;;;;;;5105722;28;20493;-45
2022/12/13 12:10:39;;;;;;;19.20;10.75;;;5.10;90.60;;;;;;5113129;28;20023;-46
2022/12/13 12:13:16;;;;;;;14.98;8.70;;;5.10;90.70;;;;;;5113291;28;20035;-45
2022/12/13 12:15:51;;;;;;;15.52;10.13;;;5.10;90.70;;;;;;5113498;28;20032;-45
2022/12/13 12:18:16;;;;;;;14.52;8.57;;;5.10;90.70;;;;;;5111154;28;20477;-45
2022/12/13 12:20:56;;;;;;;15.88;9.13;;;5.10;90.70;;;;;;5113077;28;20048;-47
2022/12/13 12:23:51;;;;;;;17.42;9.15;;;5.10;90.70;;;;;;5112940;27;20076;-45
2022/12/13 12:26:22;;;;;;;14.10;9.13;;;5.20;90.80;;;;;;5113119;28;20024;-46
2022/12/13 12:29:00;;;;;;;15.27;8.55;;;5.20;90.70;;;;;;5112406;28;20015;-46
2022/12/13 12:31:43;;;;;;;15.07;7.70;;;5.20;90.80;;;;;;5112993;28;20108;-49
2022/12/13 12:34:17;;;;;;;14.23;8.27;;;5.20;90.80;;;;;;5111803;28;20107;-46
2022/12/13 12:37:10;;;;;;;14.85;7.95;;;5.20;90.80;;;;;;5112669;28;20019;-45
2022/12/13 12:39:57;;;;;;;14.82;8.15;;;5.20;90.90;;;;;;5112110;28;20040;-47
2022/12/13 12:43:04;;;;;;;12.95;7.57;;;5.20;90.90;;;;;;5112660;28;20023;-45
2022/12/13 12:45:43;;;;;;;13.45;7.55;;;5.20;90.80;;;;;;5112591;28;20484;-45
2022/12/13 12:48:34;;;;;;;11.80;7.50;;;5.20;90.90;;;;;;5111896;28;20473;-45
2022/12/13 12:51:23;;;;;;;11.50;7.03;;;5.20;90.90;;;;;;5112734;28;20084;-45
2022/12/13 12:54:12;;;;;;;14.90;7.38;;;5.20;90.90;;;;;;5112419;28;20080;-45
2022/12/13 12:57:03;;;;;;;13.32;7.22;;;5.20;90.90;;;;;;5105301;28;20043;-45
2022/12/13 12:59:40;;;;;;;13.23;7.80;;;5.20;90.90;;;;;;5111777;28;20016;-46
2022/12/13 13:02:30;;;;;;;10.93;6.75;;;5.20;91.00;;;;;;5112223;28;20043;-45
2022/12/13 13:05:06;;;;;;;10.73;7.05;;;5.20;91.00;;;;;;5112207;28;20116;-45
2022/12/13 13:07:38;;;;;;;16.35;7.18;;;5.20;91.00;;;;;;5112015;28;20028;-45